Time;durP1;ratioP1;P1;durP2;ratioP2;P2;SDS_P1;SDS_P2;PMS_P1;PMS_P2;Temp;Humidity;BMP_temperature;BMP_pressure;BME280_temperature;BME280_humidity;BME280_pressure;Samples;Min_cycle;Max_cycle;Signal;HPM_P1;HPM_P2
2023/03/09 00:01:26;;;;;;;2.00;1.30;;;;;;;10.45;84.64;93547.16;5004421;28;20201;-90
2023/03/09 00:04:49;;;;;;;1.57;1.20;;;;;;;10.54;83.70;93547.63;5008694;28;20209;-90
2023/03/09 00:07:20;;;;;;;1.47;0.90;;;;;;;10.63;82.94;93544.47;4909301;29;20248;-89
2023/03/09 00:09:47;;;;;;;2.53;1.20;;;;;;;10.72;82.17;93547.47;4946655;28;20359;-89
2023/03/09 00:12:23;;;;;;;1.17;1.00;;;;;;;10.81;81.43;93545.31;5007307;28;20207;-89
2023/03/09 00:14:52;;;;;;;1.37;0.97;;;;;;;10.90;81.26;93562.75;5008637;28;20202;-90
2023/03/09 00:17:20;;;;;;;1.23;1.00;;;;;;;10.96;81.06;93548.22;5008457;28;20214;-90
2023/03/09 00:19:47;;;;;;;0.93;0.90;;;;;;;11.02;80.39;93545.47;5008241;28;20246;-89
2023/03/09 00:22:28;;;;;;;;;;;;;;;;;;;;;
2023/03/09 00:24:55;;;;;;;1.77;1.20;;;;;;;11.13;80.80;93556.78;5006986;28;20678;-90
2023/03/09 00:27:24;;;;;;;1.30;1.17;;;;;;;11.14;81.05;93552.41;5008596;28;20202;-89
2023/03/09 00:29:54;;;;;;;1.00;0.90;;;;;;;11.15;80.29;93544.44;5008698;28;20659;-90
2023/03/09 00:32:21;;;;;;;0.87;0.80;;;;;;;11.14;79.26;93532.59;5007927;28;20222;-89
2023/03/09 00:34:48;;;;;;;1.60;0.90;;;;;;;11.15;78.90;93523.84;5008331;28;20203;-90
2023/03/09 00:37:21;;;;;;;1.10;1.00;;;;;;;11.20;78.64;93536.78;5008254;28;20199;-90
2023/03/09 00:39:53;;;;;;;1.60;1.03;;;;;;;11.29;78.35;93530.28;5007953;28;20226;-90
2023/03/09 00:42:35;;;;;;;0.60;0.60;;;;;;;11.23;77.70;93532.97;4999819;28;20230;-90
2023/03/09 00:45:05;;;;;;;1.27;0.80;;;;;;;11.21;77.11;93533.22;5011553;28;20205;-90
2023/03/09 00:47:33;;;;;;;1.07;0.90;;;;;;;11.26;76.71;93533.31;5027798;28;20240;-89
2023/03/09 00:50:01;;;;;;;0.77;0.77;;;;;;;11.30;76.08;93526.69;5027430;28;20218;-90
2023/03/09 00:52:30;;;;;;;1.67;0.73;;;;;;;11.32;76.06;93532.41;5027518;28;20205;-90
2023/03/09 00:55:03;;;;;;;0.90;0.83;;;;;;;11.29;75.69;93517.41;5027818;28;20206;-90
2023/03/09 00:57:37;;;;;;;0.97;0.80;;;;;;;11.26;75.80;93517.84;5027783;28;20209;-90
2023/03/09 01:00:06;;;;;;;1.97;0.77;;;;;;;11.31;74.88;93525.69;5027573;28;20234;-90
2023/03/09 01:02:38;;;;;;;1.37;0.80;;;;;;;11.31;74.50;93517.16;5011054;28;20282;-89
2023/03/09 01:05:05;;;;;;;0.73;0.70;;;;;;;11.33;74.28;93517.72;5007958;28;20210;-90
2023/03/09 01:07:34;;;;;;;0.77;0.70;;;;;;;11.29;74.62;93511.47;5008101;28;20571;-89
2023/03/09 01:10:19;;;;;;;0.70;0.70;;;;;;;11.30;74.61;93503.50;5007810;28;20219;-90
2023/03/09 01:12:49;;;;;;;0.60;0.60;;;;;;;11.32;74.53;93500.69;5007123;28;20202;-90
2023/03/09 01:15:18;;;;;;;0.70;0.67;;;;;;;11.36;74.78;93494.81;4982597;28;20242;-90
2023/03/09 01:17:47;;;;;;;0.87;0.60;;;;;;;11.33;73.51;93491.97;4988675;28;20208;-90
2023/03/09 01:20:16;;;;;;;0.50;0.50;;;;;;;11.36;72.92;93484.53;4992791;28;20223;-89
2023/03/09 01:22:47;;;;;;;2.23;0.70;;;;;;;11.39;72.28;93486.63;5007512;28;20215;-90
2023/03/09 01:25:13;;;;;;;0.67;0.60;;;;;;;11.39;71.59;93478.91;5007844;28;20205;-89
2023/03/09 01:27:43;;;;;;;0.50;0.50;;;;;;;11.46;71.82;93488.28;5008048;28;20199;-89
2023/03/09 01:30:12;;;;;;;0.67;0.60;;;;;;;11.41;70.98;93468.38;5007279;28;20219;-90
2023/03/09 01:32:42;;;;;;;0.50;0.50;;;;;;;11.41;70.51;93491.56;5008250;28;20225;-89
2023/03/09 01:35:17;;;;;;;0.50;0.50;;;;;;;11.43;70.42;93510.16;5007477;28;20226;-90
2023/03/09 01:37:43;;;;;;;0.60;0.60;;;;;;;11.41;70.00;93512.94;5007426;28;20197;-90
2023/03/09 01:40:28;;;;;;;0.60;0.60;;;;;;;11.47;70.15;93500.94;5007571;28;20715;-90
2023/03/09 01:42:57;;;;;;;0.50;0.50;;;;;;;11.50;69.53;93497.13;5007838;28;20203;-89
2023/03/09 01:46:01;;;;;;;0.53;0.50;;;;;;;11.54;68.84;93504.16;5007419;28;20206;-90
2023/03/09 01:48:45;;;;;;;0.40;0.40;;;;;;;11.58;68.02;93500.09;5007359;28;20224;-90
2023/03/09 01:51:14;;;;;;;0.43;0.43;;;;;;;11.63;67.65;93500.19;5006968;28;20718;-90
2023/03/09 01:53:41;;;;;;;0.83;0.50;;;;;;;11.65;67.34;93500.72;5007029;28;20226;-90
2023/03/09 01:56:08;;;;;;;0.60;0.60;;;;;;;11.69;67.78;93472.69;5007186;28;20202;-90
2023/03/09 01:58:39;;;;;;;0.40;0.40;;;;;;;11.61;67.47;93475.66;5007384;28;20222;-90
2023/03/09 02:01:06;;;;;;;0.83;0.40;;;;;;;11.62;67.32;93474.63;5007379;28;20661;-90
2023/03/09 02:03:37;;;;;;;0.40;0.40;;;;;;;11.63;66.60;93460.72;5007197;28;20199;-90
2023/03/09 02:06:13;;;;;;;0.40;0.40;;;;;;;11.65;67.25;93469.00;5007364;28;20199;-90
2023/03/09 02:08:55;;;;;;;0.40;0.40;;;;;;;11.69;67.44;93475.28;5007442;28;20704;-89
2023/03/09 02:11:24;;;;;;;0.40;0.40;;;;;;;11.75;67.79;93466.56;5007322;28;20214;-89
2023/03/09 02:13:54;;;;;;;0.50;0.50;;;;;;;11.67;68.02;93472.13;5006541;28;20202;-89
2023/03/09 02:16:21;;;;;;;0.40;0.40;;;;;;;11.69;68.86;93468.31;5007076;28;20218;-90
2023/03/09 02:18:48;;;;;;;0.40;0.40;;;;;;;11.69;68.84;93463.16;5007183;28;20223;-89
2023/03/09 02:21:22;;;;;;;0.40;0.40;;;;;;;11.70;68.57;93482.00;5006449;28;20199;-90
2023/03/09 02:23:56;;;;;;;0.40;0.40;;;;;;;11.59;69.18;93480.25;5009527;28;20221;-89
2023/03/09 02:26:35;;;;;;;0.40;0.40;;;;;;;11.61;69.47;93502.19;5011052;28;20217;-90
2023/03/09 02:29:03;;;;;;;0.60;0.60;;;;;;;11.64;69.71;93506.13;5010783;28;20230;-90
2023/03/09 02:31:30;;;;;;;0.57;0.40;;;;;;;11.61;69.41;93525.41;5010118;28;20213;-90
2023/03/09 02:33:57;;;;;;;0.40;0.40;;;;;;;11.64;70.09;93535.25;5011050;28;20222;-90
2023/03/09 02:36:25;;;;;;;0.97;0.60;;;;;;;11.64;71.46;93553.28;5011166;28;20242;-90
2023/03/09 02:38:52;;;;;;;0.57;0.57;;;;;;;11.53;73.99;93550.78;5010574;28;20229;-89
2023/03/09 02:41:19;;;;;;;1.63;0.70;;;;;;;11.47;78.02;93573.09;5010505;28;20203;-89
2023/03/09 02:43:50;;;;;;;0.67;0.50;;;;;;;11.33;82.28;93595.00;5010446;28;20615;-89
2023/03/09 02:46:17;;;;;;;0.60;0.60;;;;;;;11.28;84.89;93593.09;5010245;28;20207;-90
2023/03/09 02:48:44;;;;;;;0.60;0.53;;;;;;;11.06;88.57;93613.53;5010526;28;20250;-90
2023/03/09 02:51:13;;;;;;;0.50;0.50;;;;;;;10.61;86.24;93603.09;5009774;28;20207;-90
2023/03/09 02:53:40;;;;;;;0.87;0.70;;;;;;;10.25;88.57;93618.75;5010360;28;20210;-90
2023/03/09 02:56:07;;;;;;;1.20;0.70;;;;;;;10.15;90.01;93628.78;5010076;28;20676;-89
2023/03/09 02:58:34;;;;;;;1.87;0.70;;;;;;;9.89;90.54;93612.72;5010024;28;20245;-91
2023/03/09 03:01:00;;;;;;;1.13;0.70;;;;;;;9.70;90.47;93596.59;5009976;28;20222;-90
2023/03/09 03:03:28;;;;;;;1.60;0.70;;;;;;;9.75;92.40;93613.16;5010041;28;20565;-90
2023/03/09 03:05:55;;;;;;;1.57;0.80;;;;;;;9.68;92.99;93619.16;5009544;28;20215;-89
2023/03/09 03:08:21;;;;;;;1.27;0.90;;;;;;;9.64;93.18;93612.09;5010033;28;20722;-89
2023/03/09 03:10:50;;;;;;;0.70;0.70;;;;;;;9.65;92.68;93593.91;5009614;28;20572;-90
2023/03/09 03:13:24;;;;;;;1.13;0.70;;;;;;;9.70;92.97;93613.81;5008488;28;20203;-90
2023/03/09 03:16:02;;;;;;;0.90;0.80;;;;;;;9.73;93.18;93602.31;5009914;28;20214;-90
2023/03/09 03:18:31;;;;;;;1.90;0.70;;;;;;;9.67;95.14;93588.53;5009875;28;20218;-90
2023/03/09 03:20:57;;;;;;;0.60;0.60;;;;;;;9.60;95.79;93593.00;5009236;28;20230;-89
2023/03/09 03:23:24;;;;;;;1.10;0.60;;;;;;;9.64;95.53;93594.91;5009774;28;20242;-90
2023/03/09 03:25:51;;;;;;;0.83;0.60;;;;;;;9.74;96.76;93602.09;5009878;28;20214;-90
2023/03/09 03:28:19;;;;;;;1.20;0.60;;;;;;;9.73;95.75;93607.44;5009275;28;20256;-89
2023/03/09 03:31:04;;;;;;;0.57;0.57;;;;;;;9.71;95.26;93592.25;5009301;28;20213;-89
2023/03/09 03:33:34;;;;;;;0.70;0.70;;;;;;;9.79;95.08;93586.03;5009903;28;20206;-89
2023/03/09 03:36:00;;;;;;;1.37;0.70;;;;;;;9.86;95.32;93586.69;5009016;28;20818;-89
2023/03/09 03:38:30;;;;;;;0.70;0.60;;;;;;;9.86;94.46;93579.75;5009101;28;20223;-91
2023/03/09 03:40:56;;;;;;;0.60;0.60;;;;;;;9.86;93.88;93582.31;5009301;28;20736;-89
2023/03/09 03:43:23;;;;;;;0.80;0.70;;;;;;;9.88;94.06;93598.31;5009118;28;20207;-89
2023/03/09 03:45:51;;;;;;;0.97;0.70;;;;;;;9.92;94.63;93601.22;5009075;28;20237;-90
2023/03/09 03:48:19;;;;;;;0.97;0.70;;;;;;;9.88;92.89;93559.75;5008985;28;20711;-89
2023/03/09 03:50:47;;;;;;;0.87;0.70;;;;;;;9.87;92.53;93565.91;5008677;28;20637;-90
2023/03/09 03:53:13;;;;;;;0.60;0.50;;;;;;;9.85;90.31;93560.19;5008900;28;20939;-89
2023/03/09 03:55:40;;;;;;;0.60;0.60;;;;;;;9.90;90.48;93568.03;5009603;28;20218;-90
2023/03/09 03:58:06;;;;;;;0.50;0.50;;;;;;;9.88;90.76;93588.03;5009095;28;20214;-89
2023/03/09 04:00:33;;;;;;;1.13;0.80;;;;;;;9.86;90.25;93591.81;5008933;28;20227;-89
2023/03/09 04:03:12;;;;;;;1.93;0.70;;;;;;;9.97;90.99;93578.22;5008575;28;20215;-90
2023/03/09 04:05:51;;;;;;;0.60;0.60;;;;;;;9.99;90.81;93564.16;5008769;28;20657;-89
2023/03/09 04:08:18;;;;;;;1.37;0.80;;;;;;;10.04;90.41;93556.53;5008529;28;20317;-90
2023/03/09 04:10:45;;;;;;;1.07;0.80;;;;;;;10.10;89.70;93548.94;5008517;28;20199;-89
2023/03/09 04:13:16;;;;;;;0.93;0.60;;;;;;;10.14;89.56;93544.94;5007529;28;20819;-90
2023/03/09 04:15:44;;;;;;;1.27;0.77;;;;;;;10.15;89.66;93538.78;5008506;28;20210;-90
2023/03/09 04:18:10;;;;;;;1.10;0.80;;;;;;;10.16;89.57;93561.69;5008750;28;20557;-89
2023/03/09 04:20:38;;;;;;;0.70;0.70;;;;;;;10.14;87.80;93570.63;5008069;28;20218;-90
2023/03/09 04:23:05;;;;;;;0.60;0.60;;;;;;;10.21;88.48;93582.41;5008594;28;20278;-90
2023/03/09 04:25:57;;;;;;;1.13;0.80;;;;;;;10.17;90.00;93586.41;5008097;28;20202;-90
2023/03/09 04:28:24;;;;;;;1.00;0.90;;;;;;;10.14;91.08;93586.06;5008256;28;20214;-89
2023/03/09 04:30:51;;;;;;;3.23;0.67;;;;;;;10.18;92.26;93580.25;5008525;28;20819;-89
2023/03/09 04:33:21;;;;;;;0.80;0.60;;;;;;;10.24;92.27;93578.59;5008664;28;20207;-89
2023/03/09 04:35:50;;;;;;;1.90;0.90;;;;;;;10.22;92.54;93586.53;5008816;28;20202;-89
2023/03/09 04:38:16;;;;;;;1.80;0.83;;;;;;;10.21;93.07;93591.91;5008040;28;20306;-90
2023/03/09 04:40:44;;;;;;;0.70;0.70;;;;;;;10.20;92.66;93609.13;5008019;28;20230;-90
2023/03/09 04:43:11;;;;;;;1.07;0.70;;;;;;;10.20;92.89;93616.06;5008211;28;20206;-90
2023/03/09 04:45:40;;;;;;;1.43;0.90;;;;;;;10.15;93.32;93609.00;5007559;28;20206;-90
2023/03/09 04:48:09;;;;;;;0.80;0.80;;;;;;;10.14;93.42;93612.56;5008394;28;20206;-90
2023/03/09 04:50:36;;;;;;;0.93;0.90;;;;;;;10.09;93.37;93627.06;5008102;28;20198;-89
2023/03/09 04:53:05;;;;;;;1.07;0.90;;;;;;;10.07;93.73;93631.66;5007646;28;20301;-89
2023/03/09 04:55:33;;;;;;;0.93;0.70;;;;;;;10.03;93.29;93621.03;5008136;28;20242;-89
2023/03/09 04:58:02;;;;;;;0.73;0.67;;;;;;;10.00;93.51;93624.84;5007898;28;20211;-90
2023/03/09 05:00:28;;;;;;;1.37;0.70;;;;;;;10.02;93.87;93627.94;5007770;28;20626;-90
2023/03/09 05:02:56;;;;;;;0.90;0.60;;;;;;;9.98;94.21;93629.41;5008260;28;20202;-90
2023/03/09 05:05:23;;;;;;;1.37;0.73;;;;;;;9.95;96.27;93641.94;5007519;28;20206;-90
2023/03/09 05:07:50;;;;;;;1.97;0.70;;;;;;;9.85;99.52;93657.06;5007464;28;20263;-91
2023/03/09 05:10:24;;;;;;;1.23;0.80;;;;;;;9.73;100.00;93648.56;5007837;28;20222;-89
2023/03/09 05:13:07;;;;;;;0.80;0.70;;;;;;;9.68;100.00;93650.00;5006842;28;20198;-90
2023/03/09 05:15:33;;;;;;;1.10;0.67;;;;;;;9.59;99.27;93660.81;5008017;28;20218;-90
2023/03/09 05:18:00;;;;;;;1.13;0.60;;;;;;;9.59;97.63;93651.31;5007795;28;20238;-90
2023/03/09 05:20:37;;;;;;;0.70;0.50;;;;;;;9.60;97.59;93657.25;5006669;28;20219;-90
2023/03/09 05:23:03;;;;;;;0.50;0.50;;;;;;;9.60;96.70;93680.34;5008503;28;20199;-89
2023/03/09 05:25:33;;;;;;;0.87;0.60;;;;;;;9.59;97.44;93702.69;5008165;28;20199;-90
2023/03/09 05:28:01;;;;;;;1.57;0.90;;;;;;;9.54;98.43;93688.91;5007405;28;20238;-90
2023/03/09 05:30:28;;;;;;;0.80;0.60;;;;;;;9.56;99.80;93686.91;5007666;28;20207;-89
2023/03/09 05:32:55;;;;;;;0.70;0.70;;;;;;;9.48;100.00;93688.00;5007714;28;20203;-89
2023/03/09 05:35:21;;;;;;;0.80;0.70;;;;;;;9.46;100.00;93722.59;5007757;28;20651;-89
2023/03/09 05:37:48;;;;;;;1.80;0.63;;;;;;;9.45;100.00;93718.44;5007620;28;20203;-90
2023/03/09 05:40:17;;;;;;;0.87;0.60;;;;;;;9.49;99.84;93730.66;5007237;28;20230;-89
2023/03/09 05:42:43;;;;;;;1.20;0.60;;;;;;;9.40;100.00;93747.38;5007531;28;20210;-90
2023/03/09 05:45:21;;;;;;;1.40;0.60;;;;;;;9.44;100.00;93745.91;5007509;28;20198;-90
2023/03/09 05:47:56;;;;;;;1.23;0.53;;;;;;;9.30;100.00;93754.78;5007858;28;20428;-89
2023/03/09 05:50:25;;;;;;;1.13;0.60;;;;;;;9.42;100.00;93765.13;5007482;28;20245;-89
2023/03/09 05:52:53;;;;;;;2.73;0.77;;;;;;;9.42;100.00;93768.50;5007409;28;20706;-90
2023/03/09 05:55:25;;;;;;;1.90;0.73;;;;;;;9.43;100.00;93785.44;5007047;28;20206;-90
2023/03/09 05:57:55;;;;;;;1.23;0.77;;;;;;;9.44;99.71;93807.56;5007989;28;20301;-90
2023/03/09 06:00:24;;;;;;;0.77;0.40;;;;;;;9.38;100.00;93815.34;5010874;28;20234;-90
2023/03/09 06:02:51;;;;;;;0.50;0.50;;;;;;;9.38;100.00;93808.44;5011312;28;20194;-90
2023/03/09 06:05:28;;;;;;;1.07;0.50;;;;;;;9.41;100.00;93814.94;5016400;28;20223;-90
2023/03/09 06:07:55;;;;;;;0.50;0.50;;;;;;;9.41;100.00;93827.78;5015674;28;20206;-90
2023/03/09 06:10:27;;;;;;;0.67;0.47;;;;;;;9.34;100.00;93838.88;5010789;28;20597;-90
2023/03/09 06:12:54;;;;;;;1.13;0.60;;;;;;;9.41;100.00;93838.03;5010382;28;20207;-89
2023/03/09 06:15:37;;;;;;;0.50;0.50;;;;;;;9.35;100.00;93842.25;5011037;28;20206;-89
2023/03/09 06:18:05;;;;;;;0.57;0.50;;;;;;;9.30;100.00;93852.34;5010516;28;20293;-89
2023/03/09 06:20:37;;;;;;;1.63;0.70;;;;;;;9.31;100.00;93851.34;5010585;28;20273;-90
2023/03/09 06:23:11;;;;;;;0.60;0.60;;;;;;;9.30;99.76;93862.63;5010945;28;20285;-90
2023/03/09 06:25:47;;;;;;;1.23;0.70;;;;;;;9.35;99.34;93873.06;5011201;28;20284;-90
2023/03/09 06:28:31;;;;;;;1.43;1.00;;;;;;;9.38;99.14;93884.69;5011069;28;20199;-89
2023/03/09 06:31:11;;;;;;;0.73;0.67;;;;;;;9.41;98.91;93881.72;5010670;28;20206;-90
2023/03/09 06:33:40;;;;;;;0.60;0.60;;;;;;;9.40;98.97;93901.47;5010818;28;20210;-90
2023/03/09 06:36:16;;;;;;;0.50;0.50;;;;;;;9.46;99.13;93898.03;5010142;28;20719;-89
2023/03/09 06:38:53;;;;;;;;;;;;;;;;;;;;;
2023/03/09 06:41:33;;;;;;;1.43;0.77;;;;;;;9.40;98.43;93921.22;5007536;28;20252;-91
2023/03/09 06:44:00;;;;;;;0.97;0.60;;;;;;;9.48;98.58;93934.56;5010777;28;20237;-90
2023/03/09 06:46:28;;;;;;;1.67;0.80;;;;;;;9.53;98.06;93937.31;5010929;28;20261;-90
2023/03/09 06:49:07;;;;;;;;;;;;;;;;;;;;;
2023/03/09 06:51:51;;;;;;;2.23;0.70;;;;;;;9.47;98.19;93960.47;5006182;28;20214;-90
2023/03/09 06:57:03;;;;;;;1.07;0.67;;;;;;;9.57;96.84;93966.72;5008419;28;20198;-90
2023/03/09 06:59:31;;;;;;;0.73;0.73;;;;;;;9.55;96.53;93979.00;5011022;28;20616;-89
2023/03/09 07:01:59;;;;;;;1.43;0.60;;;;;;;9.58;96.52;93996.56;5010589;28;20305;-90
2023/03/09 07:04:26;;;;;;;0.80;0.70;;;;;;;9.59;95.81;93998.13;5009906;28;20253;-90
2023/03/09 07:06:58;;;;;;;1.37;0.60;;;;;;;9.55;95.72;94011.59;5010704;28;20205;-89
2023/03/09 07:09:25;;;;;;;0.50;0.50;;;;;;;9.58;95.89;94011.97;5009861;28;20277;-90
2023/03/09 07:11:56;;;;;;;1.23;0.50;;;;;;;9.70;95.21;94019.78;5010223;28;20195;-89
2023/03/09 07:14:25;;;;;;;0.60;0.60;;;;;;;9.70;95.11;94028.28;5008848;28;20222;-89
2023/03/09 07:17:00;;;;;;;0.77;0.60;;;;;;;9.66;95.25;94037.41;5011451;28;20290;-91
2023/03/09 07:19:28;;;;;;;0.73;0.63;;;;;;;9.72;94.97;94028.06;5010748;28;20226;-90
2023/03/09 07:21:55;;;;;;;0.87;0.80;;;;;;;9.66;94.46;94037.41;5009678;28;20218;-90
2023/03/09 07:24:22;;;;;;;0.73;0.50;;;;;;;9.61;94.74;94050.09;5009883;28;20230;-90
2023/03/09 07:26:49;;;;;;;1.03;0.50;;;;;;;9.63;94.38;94045.53;5009883;28;20203;-90
2023/03/09 07:29:26;;;;;;;1.13;0.70;;;;;;;9.74;94.16;94049.22;5010274;28;20231;-90
2023/03/09 07:31:57;;;;;;;0.70;0.70;;;;;;;9.88;92.63;94045.53;5010244;28;20199;-91
2023/03/09 07:34:24;;;;;;;0.60;0.60;;;;;;;10.23;90.02;94056.16;5010107;28;20209;-89
2023/03/09 07:36:55;;;;;;;0.50;0.50;;;;;;;10.42;88.26;94067.25;5010099;28;20280;-91
2023/03/09 07:39:22;;;;;;;0.93;0.70;;;;;;;10.79;86.05;94067.28;5009623;28;20723;-90
2023/03/09 07:41:53;;;;;;;1.03;0.60;;;;;;;11.17;82.53;94077.34;5009418;28;20233;-90
2023/03/09 07:47:28;;;;;;;1.10;0.70;;;;;;;12.32;76.92;94083.06;4967796;28;20264;-90
2023/03/09 07:50:15;;;;;;;1.40;0.83;;;;;;;12.68;74.95;94084.66;5009060;28;20684;-90
2023/03/09 07:53:14;;;;;;;;;;;;;;;;;;;;;
2023/03/09 07:56:00;;;;;;;0.70;0.70;;;;;;;12.87;71.73;94086.09;5007645;28;20688;-90
2023/03/09 07:58:39;;;;;;;;;;;;;;;;;;;;;
2023/03/09 08:01:13;;;;;;;0.70;0.70;;;;;;;12.86;71.79;94109.56;5003242;28;20597;-88
2023/03/09 08:03:41;;;;;;;0.90;0.90;;;;;;;12.90;71.93;94108.09;5009210;28;20199;-89
2023/03/09 08:06:18;;;;;;;0.60;0.60;;;;;;;13.26;71.43;94113.00;5008919;28;20202;-89
2023/03/09 08:09:12;;;;;;;0.83;0.70;;;;;;;13.20;70.75;94121.66;5020410;28;20226;-90
2023/03/09 08:11:38;;;;;;;0.70;0.70;;;;;;;13.09;71.43;94137.94;5002039;28;20253;-91
2023/03/09 08:14:11;;;;;;;0.70;0.60;;;;;;;12.72;73.17;94147.72;4992144;28;20206;-89
2023/03/09 08:16:47;;;;;;;1.23;0.87;;;;;;;12.85;73.70;94152.69;4989821;28;20211;-90
2023/03/09 08:19:29;;;;;;;1.10;0.70;;;;;;;12.96;72.21;94151.88;4989013;28;20226;-90
2023/03/09 08:22:27;;;;;;;1.33;0.77;;;;;;;12.66;72.93;94159.75;5007314;28;20218;-89
2023/03/09 08:24:55;;;;;;;1.37;0.80;;;;;;;12.65;73.56;94165.16;5022548;28;20203;-91
2023/03/09 08:27:25;;;;;;;1.33;0.60;;;;;;;12.76;72.31;94159.97;5008590;28;20290;-90
2023/03/09 08:29:53;;;;;;;1.50;0.83;;;;;;;12.96;70.61;94171.78;5008443;28;20584;-90
2023/03/09 08:32:32;;;;;;;;;;;;;;;;;;;;;
2023/03/09 08:35:02;;;;;;;1.27;0.70;;;;;;;12.60;71.79;94203.75;5008661;28;20203;-90
2023/03/09 08:38:05;;;;;;;1.37;0.70;;;;;;;12.45;71.66;94196.44;5008615;28;20600;-90
2023/03/09 08:40:44;;;;;;;;;;;;;;;;;;;;;
2023/03/09 08:43:14;;;;;;;0.90;0.73;;;;;;;12.45;70.37;94199.03;5007926;28;20579;-90
2023/03/09 08:45:45;;;;;;;0.83;0.83;;;;;;;12.52;71.39;94201.47;5008594;28;20552;-90
2023/03/09 08:48:12;;;;;;;2.37;0.97;;;;;;;12.68;70.75;94206.03;5008894;28;20232;-91
2023/03/09 08:51:04;;;;;;;1.60;0.97;;;;;;;12.87;68.82;94202.34;5008538;28;20214;-90
2023/03/09 08:54:00;;;;;;;1.80;0.80;;;;;;;13.25;67.08;94207.06;4980959;28;20268;-91
2023/03/09 08:56:46;;;;;;;0.93;0.80;;;;;;;13.18;65.57;94211.56;4995936;28;20206;-90
2023/03/09 08:59:12;;;;;;;2.00;0.90;;;;;;;13.28;65.04;94218.72;5008176;28;20230;-90
2023/03/09 09:01:45;;;;;;;1.20;0.90;;;;;;;13.37;64.40;94219.97;5008305;28;20305;-91
2023/03/09 09:04:34;;;;;;;1.60;0.83;;;;;;;13.13;64.46;94214.78;5008503;28;20249;-90
2023/03/09 09:10:02;;;;;;;;;;;;;;;;;;;;;
2023/03/09 09:12:42;;;;;;;1.10;0.60;;;;;;;13.91;61.48;94212.75;4991139;28;20191;-89
2023/03/09 09:15:10;;;;;;;2.40;1.10;;;;;;;13.74;60.66;94212.69;5013716;28;20256;-89
2023/03/09 09:17:56;;;;;;;2.33;0.90;;;;;;;13.73;60.48;94211.13;5008385;28;20834;-90
2023/03/09 09:20:27;;;;;;;1.17;0.90;;;;;;;13.56;61.06;94212.84;4965928;28;20653;-91
2023/03/09 09:23:21;;;;;;;1.83;1.00;;;;;;;13.17;61.97;94222.91;5008960;28;20254;-90
2023/03/09 09:26:00;;;;;;;1.30;0.80;;;;;;;12.82;63.07;94233.19;5007575;28;20202;-91
2023/03/09 09:31:38;;;;;;;2.07;0.70;;;;;;;12.36;64.72;94244.22;4997556;28;20281;-90
2023/03/09 09:34:32;;;;;;;2.20;1.00;;;;;;;12.34;65.14;94247.00;5012744;28;20210;-90
2023/03/09 09:43:23;;;;;;;2.23;1.10;;;;;;;12.31;64.04;94255.22;4965983;28;20233;-90
2023/03/09 09:46:17;;;;;;;;;;;;;;;;;;;;;
2023/03/09 10:03:13;;;;;;;;;;;;;;;;;;;;;
2023/03/09 10:06:20;;;;;;;1.37;0.83;;;;;;;12.20;62.71;94250.78;5011239;28;20199;-90
2023/03/09 10:09:00;;;;;;;1.73;1.10;;;;;;;12.22;62.79;94284.09;5014786;28;20223;-90
2023/03/09 10:11:41;;;;;;;1.30;1.00;;;;;;;12.09;62.79;94269.59;5013457;28;20277;-89
2023/03/09 10:14:18;;;;;;;4.60;0.87;;;;;;;12.21;62.55;94270.41;5015729;28;20214;-90
2023/03/09 10:20:13;;;;;;;1.23;0.90;;;;;;;12.29;62.30;94284.81;5007252;28;20218;-90
2023/03/09 10:22:55;;;;;;;1.27;0.80;;;;;;;12.44;62.26;94282.63;5007485;28;20361;-90
2023/03/09 10:25:42;;;;;;;;;;;;;;;;;;;;;
2023/03/09 10:31:20;;;;;;;2.07;1.00;;;;;;;12.43;62.93;94288.78;5036790;28;20187;-90
2023/03/09 10:34:06;;;;;;;1.30;0.80;;;;;;;12.44;62.86;94292.97;5031976;28;20190;-89
2023/03/09 10:37:10;;;;;;;2.07;0.70;;;;;;;12.39;62.44;94293.59;5033487;28;20201;-90
2023/03/09 10:39:45;;;;;;;0.63;0.60;;;;;;;12.28;62.03;94307.25;5035634;28;20219;-90
2023/03/09 10:42:32;;;;;;;2.50;0.80;;;;;;;12.27;61.78;94299.75;5036791;28;20202;-92
2023/03/09 10:45:12;;;;;;;1.47;0.80;;;;;;;12.21;61.81;94306.53;5035387;28;20190;-90
2023/03/09 10:48:05;;;;;;;1.50;0.60;;;;;;;12.08;61.14;94307.50;5037211;28;20211;-90
2023/03/09 10:50:46;;;;;;;1.87;0.90;;;;;;;12.16;60.61;94297.88;5035567;28;20219;-90
2023/03/09 10:53:42;;;;;;;2.30;0.70;;;;;;;12.29;59.78;94295.16;5037820;28;20190;-90
2023/03/09 10:56:22;;;;;;;1.93;0.80;;;;;;;12.35;57.64;94278.78;5036652;28;20199;-90
2023/03/09 10:59:17;;;;;;;1.27;0.80;;;;;;;12.45;57.60;94291.94;5036862;28;20282;-90
2023/03/09 11:02:00;;;;;;;2.07;1.10;;;;;;;12.49;57.75;94271.66;5014894;28;20211;-90
2023/03/09 11:04:39;;;;;;;2.20;1.00;;;;;;;12.52;56.88;94276.34;5025069;28;20183;-91
2023/03/09 11:07:31;;;;;;;4.23;1.20;;;;;;;12.50;56.28;94281.75;5031470;28;20184;-90
2023/03/09 11:10:11;;;;;;;0.83;0.73;;;;;;;12.67;55.72;94287.06;5034714;28;20238;-91
2023/03/09 11:12:57;;;;;;;1.97;0.93;;;;;;;12.96;54.30;94286.22;5029076;28;20198;-90
2023/03/09 11:15:43;;;;;;;1.80;0.80;;;;;;;13.26;53.16;94280.22;5029525;28;20203;-91
2023/03/09 11:18:39;;;;;;;0.60;0.60;;;;;;;13.29;52.63;94285.72;5028792;28;20210;-90
2023/03/09 11:21:05;;;;;;;2.20;0.90;;;;;;;13.09;52.44;94295.56;5034794;28;20210;-90
2023/03/09 11:23:37;;;;;;;1.73;0.97;;;;;;;12.99;52.97;94298.69;5032631;28;20245;-89
2023/03/09 11:26:25;;;;;;;3.07;1.10;;;;;;;13.05;52.83;94292.66;5036707;28;20366;-91
2023/03/09 11:29:35;;;;;;;2.10;0.90;;;;;;;13.09;52.96;94296.34;5034300;28;20233;-91
2023/03/09 11:32:16;;;;;;;1.77;0.90;;;;;;;13.06;53.49;94306.34;5029317;28;20207;-90
2023/03/09 11:34:52;;;;;;;1.47;0.90;;;;;;;12.95;54.18;94304.53;5020254;28;20198;-89
2023/03/09 11:40:43;;;;;;;1.47;0.90;;;;;;;12.92;53.93;94316.09;4971886;28;20206;-90
2023/03/09 11:43:39;;;;;;;1.83;0.90;;;;;;;12.80;53.75;94303.16;5010443;28;20243;-90
2023/03/09 11:46:36;;;;;;;;;;;;;;;;;;;;;
2023/03/09 11:49:23;;;;;;;1.03;0.80;;;;;;;13.20;53.00;94286.28;5015588;28;20498;-92
2023/03/09 11:52:13;;;;;;;1.50;0.90;;;;;;;13.61;53.03;94293.13;5015376;28;20198;-92
2023/03/09 12:04:07;;;;;;;2.40;1.10;;;;;;;14.87;50.49;94284.38;5022684;28;20201;-91
2023/03/09 12:07:03;;;;;;;1.92;0.80;;;;;;;14.78;48.30;94273.63;5031998;28;20198;-91
2023/03/09 12:10:10;;;;;;;;;;;;;;;;;;;;;
2023/03/09 12:12:56;;;;;;;3.38;1.00;;;;;;;14.58;48.06;94270.69;4988431;28;20198;-90
2023/03/09 12:15:59;;;;;;;1.63;1.00;;;;;;;14.89;47.63;94256.44;5030652;28;20257;-92
2023/03/09 12:21:13;;;;;;;4.03;1.00;;;;;;;15.23;46.85;94236.47;4968353;26;20234;-91
2023/03/09 12:30:56;;;;;;;;;;;;;;;;;;;;;
2023/03/09 12:37:16;;;;;;;2.17;1.10;;;;;;;15.19;45.30;94238.75;4852671;29;20249;-91
2023/03/09 12:40:37;;;;;;;3.10;1.02;;;;;;;15.21;46.26;94241.88;4869587;29;20320;-91
2023/03/09 12:43:52;;;;;;;1.70;0.80;;;;;;;15.31;45.51;94215.31;4912263;29;20239;-92
2023/03/09 12:47:03;;;;;;;2.63;1.27;;;;;;;15.31;45.57;94212.72;4963550;28;20782;-91
2023/03/09 13:03:44;;;;;;;;;;;;;;;;;;;;;
2023/03/09 13:07:16;;;;;;;;;;;;;;;;;;;;;
2023/03/09 13:10:14;;;;;;;2.92;1.27;;;;;;;15.68;44.79;94238.91;6149241;23;20838;-91
2023/03/09 13:13:03;;;;;;;2.17;0.65;;;;;;;15.57;44.35;94206.09;6186230;23;20194;-91
2023/03/09 13:19:49;;;;;;;3.22;1.02;;;;;;;15.41;45.00;94241.38;6183653;23;20524;-92
2023/03/09 13:22:23;;;;;;;1.67;0.85;;;;;;;15.58;44.21;94233.59;6187493;23;20162;-90
2023/03/09 13:37:51;;;;;;;;;;;;;;;;;;;;;
2023/03/09 13:50:25;;;;;;;2.38;1.00;;;;;;;15.57;43.96;94224.25;6020317;23;20763;-91
2023/03/09 13:53:33;;;;;;;1.83;0.90;;;;;;;15.32;43.93;94235.03;6186708;23;20248;-91
2023/03/09 13:56:38;;;;;;;2.95;0.93;;;;;;;15.23;44.67;94235.66;6090722;23;20209;-91
2023/03/09 14:06:24;;;;;;;2.20;0.90;;;;;;;15.28;43.71;94246.13;6146876;23;20171;-92
2023/03/09 14:09:54;;;;;;;1.63;0.70;;;;;;;15.02;44.31;94258.69;6150180;23;20221;-91
2023/03/09 14:15:25;;;;;;;2.67;1.00;;;;;;;14.66;45.73;94267.72;6142415;23;20179;-91
2023/03/09 14:24:36;;;;;;;1.25;0.85;;;;;;;14.61;46.17;94274.63;6147250;23;20179;-91
2023/03/09 14:34:05;;;;;;;2.00;0.85;;;;;;;14.60;46.61;94257.53;6138962;23;20179;-91
2023/03/09 14:37:00;;;;;;;1.90;1.08;;;;;;;14.63;46.99;94252.63;6149539;23;20183;-91
2023/03/09 14:39:47;;;;;;;1.00;0.80;;;;;;;14.73;47.22;94252.03;6149274;23;20191;-92
2023/03/09 14:42:44;;;;;;;1.48;0.80;;;;;;;14.99;46.77;94254.03;6150029;23;20163;-92
2023/03/09 14:48:35;;;;;;;1.75;0.98;;;;;;;15.58;45.75;94228.41;6145906;23;20249;-91
2023/03/09 14:58:17;;;;;;;3.58;1.00;;;;;;;15.31;45.29;94217.13;6147489;23;20186;-91